Riley, Michigan
Current Conditions -  °F | °C
As of 1:38 AM on Wednesday 28 Jan 2015 (Local Time) from KPHN Reporting Station
Clear Clear  
Wind Chill:   Ceiling: Unl
Heat Index:   Visibility: 10mi
Dew Point:   Wind: 3mph
Humidity: 92%   Direction: 280°W
Pressure: 30.23"   Gusts: NA
Location:  42.9405°N, 82.8034°W
Report Text: KPHN 280638Z AUTO 28003KT 10SM CLR M15/M16 A3023 RMK AO2
Loading
Personal Weather Stations






























Interactive Weather Map New forecast layout! Learn more

10-Day Weather Forecast

Advertisements
Track Severe Weather on mobile